Portada
METAR-TAF:

METAR-TAF

Aeroports :

Marion County Regional Airport

Flippin, Arkansas, Estats Units d'Amèrica

latitud: 36-18N, longitud: 092-28W, altitud: 350 m

Observació

L'informe es va fer fa 1 hora i 8 minuts, a les 11:56 UTC
Vent 5 kt del Oest/Nord-Oest
Temperatura 10°C
Humitat 66%
Pressió 1011 hPa
Visibilitat: 16.1 km
Cel clar

METAR: KFLP 191156Z AUTO 29005KT 10SM CLR 10/04 A2985 RMK AO2 SLP108 7//// T01000039 10156 20100 52019

Hora: 07:04 (13:04 UTC)


TAF: manca

Observacions i pronòstics meteorològics de més de 4000 aeroports (METAR i TAF).

Les estacions disponibles són els punts grocs i vermells al mapa.

Posi el ratolí al punt desitjat per veure el nom de l'estació.

Feu clic per veure les observacions i els pronòstics meteorològics.

Per canviar el mapa: feu clic els botons verds amb una creu de color negre per apropar; al botó verd amb un guió per allunyar la imatge; o en les fletxes verdes per a mapes adjacents.


METAR-TAF: